sensor_id;sensor_type;location;lat;lon;timestamp;temperature;humidity
14604;DHT22;7388;51.078;13.740;2022-12-10T00:01:12;7.20;43.40
14604;DHT22;7388;51.078;13.740;2022-12-10T00:03:38;7.30;43.50
14604;DHT22;7388;51.078;13.740;2022-12-10T00:06:06;7.20;43.40
14604;DHT22;7388;51.078;13.740;2022-12-10T00:08:33;7.20;43.30
14604;DHT22;7388;51.078;13.740;2022-12-10T00:11:02;7.20;43.30
14604;DHT22;7388;51.078;13.740;2022-12-10T00:13:27;7.20;43.20
14604;DHT22;7388;51.078;13.740;2022-12-10T00:15:53;7.20;43.40
14604;DHT22;7388;51.078;13.740;2022-12-10T00:18:19;7.20;43.40
14604;DHT22;7388;51.078;13.740;2022-12-10T00:20:44;7.20;43.60
14604;DHT22;7388;51.078;13.740;2022-12-10T00:23:10;7.20;43.60
14604;DHT22;7388;51.078;13.740;2022-12-10T00:25:36;7.20;43.60
14604;DHT22;7388;51.078;13.740;2022-12-10T00:28:02;7.20;43.40
14604;DHT22;7388;51.078;13.740;2022-12-10T00:30:27;7.20;43.40
14604;DHT22;7388;51.078;13.740;2022-12-10T00:32:53;7.20;43.40
14604;DHT22;7388;51.078;13.740;2022-12-10T00:35:19;7.20;43.40
14604;DHT22;7388;51.078;13.740;2022-12-10T00:37:44;7.10;43.40
14604;DHT22;7388;51.078;13.740;2022-12-10T00:40:10;7.10;43.40
14604;DHT22;7388;51.078;13.740;2022-12-10T00:42:36;7.10;43.40
14604;DHT22;7388;51.078;13.740;2022-12-10T00:45:03;7.10;43.50
14604;DHT22;7388;51.078;13.740;2022-12-10T00:47:29;7.10;43.70
14604;DHT22;7388;51.078;13.740;2022-12-10T00:49:55;7.10;43.60
14604;DHT22;7388;51.078;13.740;2022-12-10T00:52:20;7.10;43.60
14604;DHT22;7388;51.078;13.740;2022-12-10T00:54:46;7.00;43.50
14604;DHT22;7388;51.078;13.740;2022-12-10T00:57:12;7.00;43.60
14604;DHT22;7388;51.078;13.740;2022-12-10T00:59:38;7.00;43.60
14604;DHT22;7388;51.078;13.740;2022-12-10T01:02:03;7.00;43.70
14604;DHT22;7388;51.078;13.740;2022-12-10T01:04:29;7.00;43.70
14604;DHT22;7388;51.078;13.740;2022-12-10T01:06:55;7.00;43.70
14604;DHT22;7388;51.078;13.740;2022-12-10T01:09:23;7.00;43.70
14604;DHT22;7388;51.078;13.740;2022-12-10T01:11:50;7.00;43.60
14604;DHT22;7388;51.078;13.740;2022-12-10T01:14:20;7.00;43.80
14604;DHT22;7388;51.078;13.740;2022-12-10T01:16:46;7.00;43.80
14604;DHT22;7388;51.078;13.740;2022-12-10T01:19:12;7.00;43.80
14604;DHT22;7388;51.078;13.740;2022-12-10T01:21:38;7.00;43.80
14604;DHT22;7388;51.078;13.740;2022-12-10T01:24:04;7.10;43.80
14604;DHT22;7388;51.078;13.740;2022-12-10T01:26:32;7.10;43.70
14604;DHT22;7388;51.078;13.740;2022-12-10T01:28:59;7.00;43.70
14604;DHT22;7388;51.078;13.740;2022-12-10T01:31:32;7.00;43.70
14604;DHT22;7388;51.078;13.740;2022-12-10T01:33:59;7.00;43.70
14604;DHT22;7388;51.078;13.740;2022-12-10T01:36:30;7.00;43.70
14604;DHT22;7388;51.078;13.740;2022-12-10T01:38:57;7.00;43.70
14604;DHT22;7388;51.078;13.740;2022-12-10T01:41:39;6.90;43.80
14604;DHT22;7388;51.078;13.740;2022-12-10T01:46:44;6.90;43.90
14604;DHT22;7388;51.078;13.740;2022-12-10T01:49:16;6.90;43.90
14604;DHT22;7388;51.078;13.740;2022-12-10T01:51:43;6.90;43.90
14604;DHT22;7388;51.078;13.740;2022-12-10T01:54:16;6.90;43.90
14604;DHT22;7388;51.078;13.740;2022-12-10T01:56:44;6.90;43.90
14604;DHT22;7388;51.078;13.740;2022-12-10T01:59:11;6.90;44.00
14604;DHT22;7388;51.078;13.740;2022-12-10T02:07:22;6.90;43.80
14604;DHT22;7388;51.078;13.740;2022-12-10T02:10:10;6.90;43.90
14604;DHT22;7388;51.078;13.740;2022-12-10T02:13:33;6.90;43.90
14604;DHT22;7388;51.078;13.740;2022-12-10T02:15:51;6.90;43.90
14604;DHT22;7388;51.078;13.740;2022-12-10T02:18:21;6.90;44.00
14604;DHT22;7388;51.078;13.740;2022-12-10T02:20:53;6.90;44.00
14604;DHT22;7388;51.078;13.740;2022-12-10T02:23:24;6.90;44.10
14604;DHT22;7388;51.078;13.740;2022-12-10T02:26:05;6.80;44.00
14604;DHT22;7388;51.078;13.740;2022-12-10T02:31:15;6.90;44.00
14604;DHT22;7388;51.078;13.740;2022-12-10T02:33:47;6.90;44.10
14604;DHT22;7388;51.078;13.740;2022-12-10T02:36:15;6.80;43.90
14604;DHT22;7388;51.078;13.740;2022-12-10T02:38:43;6.90;44.00
14604;DHT22;7388;51.078;13.740;2022-12-10T02:41:15;6.90;43.90
14604;DHT22;7388;51.078;13.740;2022-12-10T02:43:44;6.90;44.00
14604;DHT22;7388;51.078;13.740;2022-12-10T02:46:11;6.90;44.00
14604;DHT22;7388;51.078;13.740;2022-12-10T02:48:38;6.90;44.00
14604;DHT22;7388;51.078;13.740;2022-12-10T02:51:05;6.90;43.90
14604;DHT22;7388;51.078;13.740;2022-12-10T02:53:30;6.90;44.00
14604;DHT22;7388;51.078;13.740;2022-12-10T03:02:02;6.90;43.90
14604;DHT22;7388;51.078;13.740;2022-12-10T03:04:54;6.90;43.80
14604;DHT22;7388;51.078;13.740;2022-12-10T03:07:23;6.80;43.90
14604;DHT22;7388;51.078;13.740;2022-12-10T03:10:32;6.80;44.00
14604;DHT22;7388;51.078;13.740;2022-12-10T03:12:59;6.80;43.90
14604;DHT22;7388;51.078;13.740;2022-12-10T03:15:28;6.80;44.00
14604;DHT22;7388;51.078;13.740;2022-12-10T03:17:56;6.80;44.10
14604;DHT22;7388;51.078;13.740;2022-12-10T03:20:24;6.80;44.00
14604;DHT22;7388;51.078;13.740;2022-12-10T03:22:51;6.80;43.90
14604;DHT22;7388;51.078;13.740;2022-12-10T03:25:23;6.80;44.00
14604;DHT22;7388;51.078;13.740;2022-12-10T03:27:53;6.80;44.00
14604;DHT22;7388;51.078;13.740;2022-12-10T03:30:19;6.80;44.00
14604;DHT22;7388;51.078;13.740;2022-12-10T03:32:46;6.80;44.10
14604;DHT22;7388;51.078;13.740;2022-12-10T03:35:13;6.80;44.80
14604;DHT22;7388;51.078;13.740;2022-12-10T03:37:40;6.80;44.00
14604;DHT22;7388;51.078;13.740;2022-12-10T03:40:07;6.80;43.90
14604;DHT22;7388;51.078;13.740;2022-12-10T03:42:35;6.80;43.90
14604;DHT22;7388;51.078;13.740;2022-12-10T03:45:01;6.80;43.90
14604;DHT22;7388;51.078;13.740;2022-12-10T03:47:27;6.80;44.70
14604;DHT22;7388;51.078;13.740;2022-12-10T03:49:52;6.80;44.10
14604;DHT22;7388;51.078;13.740;2022-12-10T03:52:18;6.70;44.70
14604;DHT22;7388;51.078;13.740;2022-12-10T03:54:44;6.80;44.20
14604;DHT22;7388;51.078;13.740;2022-12-10T03:57:10;6.80;44.10
14604;DHT22;7388;51.078;13.740;2022-12-10T03:59:35;6.80;44.10
14604;DHT22;7388;51.078;13.740;2022-12-10T04:02:01;6.90;44.20
14604;DHT22;7388;51.078;13.740;2022-12-10T04:04:27;6.90;44.20
14604;DHT22;7388;51.078;13.740;2022-12-10T04:06:53;6.90;44.00
14604;DHT22;7388;51.078;13.740;2022-12-10T04:09:18;6.80;44.00
14604;DHT22;7388;51.078;13.740;2022-12-10T04:11:44;6.90;44.10
14604;DHT22;7388;51.078;13.740;2022-12-10T04:14:12;6.90;43.90
14604;DHT22;7388;51.078;13.740;2022-12-10T04:16:56;6.90;44.70
14604;DHT22;7388;51.078;13.740;2022-12-10T04:19:22;6.80;44.00
14604;DHT22;7388;51.078;13.740;2022-12-10T04:21:48;6.90;44.00
14604;DHT22;7388;51.078;13.740;2022-12-10T04:24:34;6.90;44.00
14604;DHT22;7388;51.078;13.740;2022-12-10T04:29:46;6.80;43.90
14604;DHT22;7388;51.078;13.740;2022-12-10T04:32:12;6.80;43.90
14604;DHT22;7388;51.078;13.740;2022-12-10T04:34:38;6.80;43.90
14604;DHT22;7388;51.078;13.740;2022-12-10T04:37:05;6.80;43.90
14604;DHT22;7388;51.078;13.740;2022-12-10T04:39:31;6.80;43.90
14604;DHT22;7388;51.078;13.740;2022-12-10T04:41:57;6.80;43.90
14604;DHT22;7388;51.078;13.740;2022-12-10T04:44:24;6.80;44.00
14604;DHT22;7388;51.078;13.740;2022-12-10T04:46:50;6.80;44.00
14604;DHT22;7388;51.078;13.740;2022-12-10T04:49:16;6.80;44.10
14604;DHT22;7388;51.078;13.740;2022-12-10T04:51:42;6.80;44.10
14604;DHT22;7388;51.078;13.740;2022-12-10T04:54:08;6.80;44.20
14604;DHT22;7388;51.078;13.740;2022-12-10T04:56:34;6.80;44.20
14604;DHT22;7388;51.078;13.740;2022-12-10T04:59:01;6.80;44.00
14604;DHT22;7388;51.078;13.740;2022-12-10T05:01:27;6.80;44.10
14604;DHT22;7388;51.078;13.740;2022-12-10T05:03:54;6.80;44.10
14604;DHT22;7388;51.078;13.740;2022-12-10T05:06:20;6.80;44.20
14604;DHT22;7388;51.078;13.740;2022-12-10T05:08:47;6.90;44.20
14604;DHT22;7388;51.078;13.740;2022-12-10T05:11:17;6.90;44.10
14604;DHT22;7388;51.078;13.740;2022-12-10T05:13:44;6.80;44.00
14604;DHT22;7388;51.078;13.740;2022-12-10T05:16:12;6.80;44.00
14604;DHT22;7388;51.078;13.740;2022-12-10T05:18:38;6.80;44.00
14604;DHT22;7388;51.078;13.740;2022-12-10T05:21:06;6.80;44.10
14604;DHT22;7388;51.078;13.740;2022-12-10T05:23:35;6.80;44.10
14604;DHT22;7388;51.078;13.740;2022-12-10T05:26:09;6.80;44.00
14604;DHT22;7388;51.078;13.740;2022-12-10T05:28:57;6.80;44.10
14604;DHT22;7388;51.078;13.740;2022-12-10T05:31:27;6.80;44.20
14604;DHT22;7388;51.078;13.740;2022-12-10T05:33:55;6.80;44.10
14604;DHT22;7388;51.078;13.740;2022-12-10T05:36:24;6.80;44.00
14604;DHT22;7388;51.078;13.740;2022-12-10T05:38:50;6.80;44.10
14604;DHT22;7388;51.078;13.740;2022-12-10T05:41:21;6.80;44.20
14604;DHT22;7388;51.078;13.740;2022-12-10T05:43:48;6.80;44.20
14604;DHT22;7388;51.078;13.740;2022-12-10T05:46:16;6.80;44.20
14604;DHT22;7388;51.078;13.740;2022-12-10T05:48:42;6.80;44.20
14604;DHT22;7388;51.078;13.740;2022-12-10T05:51:10;6.70;44.30
14604;DHT22;7388;51.078;13.740;2022-12-10T05:53:36;6.70;44.40
14604;DHT22;7388;51.078;13.740;2022-12-10T05:56:05;6.70;44.40
14604;DHT22;7388;51.078;13.740;2022-12-10T05:58:31;6.70;44.40
14604;DHT22;7388;51.078;13.740;2022-12-10T06:00:57;6.70;44.40
14604;DHT22;7388;51.078;13.740;2022-12-10T06:03:24;6.70;44.40
14604;DHT22;7388;51.078;13.740;2022-12-10T06:05:51;6.70;44.40
14604;DHT22;7388;51.078;13.740;2022-12-10T06:08:17;6.70;44.40
14604;DHT22;7388;51.078;13.740;2022-12-10T06:10:43;6.70;44.40
14604;DHT22;7388;51.078;13.740;2022-12-10T06:13:08;6.70;44.40
14604;DHT22;7388;51.078;13.740;2022-12-10T06:15:37;6.70;44.40
14604;DHT22;7388;51.078;13.740;2022-12-10T06:18:03;6.70;44.40
14604;DHT22;7388;51.078;13.740;2022-12-10T06:20:29;6.70;44.40
14604;DHT22;7388;51.078;13.740;2022-12-10T06:22:54;6.70;44.50
14604;DHT22;7388;51.078;13.740;2022-12-10T06:25:20;6.70;44.50
14604;DHT22;7388;51.078;13.740;2022-12-10T06:27:46;6.70;45.20
14604;DHT22;7388;51.078;13.740;2022-12-10T06:30:12;6.70;44.50
14604;DHT22;7388;51.078;13.740;2022-12-10T06:32:37;6.70;44.50
14604;DHT22;7388;51.078;13.740;2022-12-10T06:35:03;6.70;44.50
14604;DHT22;7388;51.078;13.740;2022-12-10T06:37:29;6.70;44.60
14604;DHT22;7388;51.078;13.740;2022-12-10T06:39:55;6.80;44.60
14604;DHT22;7388;51.078;13.740;2022-12-10T06:42:21;6.70;44.50
14604;DHT22;7388;51.078;13.740;2022-12-10T06:44:47;6.80;44.50
14604;DHT22;7388;51.078;13.740;2022-12-10T06:47:13;6.70;44.40
14604;DHT22;7388;51.078;13.740;2022-12-10T06:49:40;6.70;44.40
14604;DHT22;7388;51.078;13.740;2022-12-10T06:52:06;6.70;44.50
14604;DHT22;7388;51.078;13.740;2022-12-10T06:54:32;6.70;44.50
14604;DHT22;7388;51.078;13.740;2022-12-10T06:56:58;6.70;44.40
14604;DHT22;7388;51.078;13.740;2022-12-10T06:59:24;6.70;44.30
14604;DHT22;7388;51.078;13.740;2022-12-10T07:01:50;6.70;44.30
14604;DHT22;7388;51.078;13.740;2022-12-10T07:04:16;6.60;45.00
14604;DHT22;7388;51.078;13.740;2022-12-10T07:06:42;6.60;44.50
14604;DHT22;7388;51.078;13.740;2022-12-10T07:09:08;6.60;44.50
14604;DHT22;7388;51.078;13.740;2022-12-10T07:11:36;6.60;44.60
14604;DHT22;7388;51.078;13.740;2022-12-10T07:14:02;6.60;44.60
14604;DHT22;7388;51.078;13.740;2022-12-10T07:16:30;6.60;44.60
14604;DHT22;7388;51.078;13.740;2022-12-10T07:18:59;6.60;44.70
14604;DHT22;7388;51.078;13.740;2022-12-10T07:21:31;6.60;44.60
14604;DHT22;7388;51.078;13.740;2022-12-10T07:23:59;6.60;44.60
14604;DHT22;7388;51.078;13.740;2022-12-10T07:26:30;6.60;44.60
14604;DHT22;7388;51.078;13.740;2022-12-10T07:28:58;6.60;44.60
14604;DHT22;7388;51.078;13.740;2022-12-10T07:31:24;6.60;44.80
14604;DHT22;7388;51.078;13.740;2022-12-10T07:33:52;6.60;44.70
14604;DHT22;7388;51.078;13.740;2022-12-10T07:36:18;6.60;44.60
14604;DHT22;7388;51.078;13.740;2022-12-10T07:38:44;6.50;44.80
14604;DHT22;7388;51.078;13.740;2022-12-10T07:41:12;6.60;44.80
14604;DHT22;7388;51.078;13.740;2022-12-10T07:43:39;6.60;44.70
14604;DHT22;7388;51.078;13.740;2022-12-10T07:46:07;6.60;44.80
14604;DHT22;7388;51.078;13.740;2022-12-10T07:48:34;6.60;45.60
14604;DHT22;7388;51.078;13.740;2022-12-10T07:51:00;6.60;44.90
14604;DHT22;7388;51.078;13.740;2022-12-10T07:53:26;6.60;45.00
14604;DHT22;7388;51.078;13.740;2022-12-10T07:55:52;6.60;44.90
14604;DHT22;7388;51.078;13.740;2022-12-10T07:58:17;6.60;44.80
14604;DHT22;7388;51.078;13.740;2022-12-10T08:00:43;6.60;44.80
14604;DHT22;7388;51.078;13.740;2022-12-10T08:03:09;6.60;45.00
14604;DHT22;7388;51.078;13.740;2022-12-10T08:05:35;6.60;45.00
14604;DHT22;7388;51.078;13.740;2022-12-10T08:08:01;6.60;45.00
14604;DHT22;7388;51.078;13.740;2022-12-10T08:10:27;6.60;45.00
14604;DHT22;7388;51.078;13.740;2022-12-10T08:12:53;6.60;45.10
14604;DHT22;7388;51.078;13.740;2022-12-10T08:15:18;6.60;45.00
14604;DHT22;7388;51.078;13.740;2022-12-10T08:17:44;6.60;45.10
14604;DHT22;7388;51.078;13.740;2022-12-10T08:20:10;6.60;45.00
14604;DHT22;7388;51.078;13.740;2022-12-10T08:22:36;6.60;45.00
14604;DHT22;7388;51.078;13.740;2022-12-10T08:25:02;6.60;44.90
14604;DHT22;7388;51.078;13.740;2022-12-10T08:27:28;6.60;45.00
14604;DHT22;7388;51.078;13.740;2022-12-10T08:29:54;6.60;45.00
14604;DHT22;7388;51.078;13.740;2022-12-10T08:32:19;6.60;45.00
14604;DHT22;7388;51.078;13.740;2022-12-10T08:34:45;6.60;45.00
14604;DHT22;7388;51.078;13.740;2022-12-10T08:37:11;6.60;45.00
14604;DHT22;7388;51.078;13.740;2022-12-10T08:39:38;6.60;45.00
14604;DHT22;7388;51.078;13.740;2022-12-10T08:42:05;6.50;45.10
14604;DHT22;7388;51.078;13.740;2022-12-10T08:44:31;6.60;45.20
14604;DHT22;7388;51.078;13.740;2022-12-10T08:46:57;6.60;45.00
14604;DHT22;7388;51.078;13.740;2022-12-10T08:49:23;6.60;45.10
14604;DHT22;7388;51.078;13.740;2022-12-10T08:51:48;6.60;45.10
14604;DHT22;7388;51.078;13.740;2022-12-10T08:54:14;6.60;45.10
14604;DHT22;7388;51.078;13.740;2022-12-10T08:56:40;6.60;45.10
14604;DHT22;7388;51.078;13.740;2022-12-10T08:59:06;6.60;45.10
14604;DHT22;7388;51.078;13.740;2022-12-10T09:01:33;6.60;45.00
14604;DHT22;7388;51.078;13.740;2022-12-10T09:03:58;6.60;45.10
14604;DHT22;7388;51.078;13.740;2022-12-10T09:06:26;6.60;45.10
14604;DHT22;7388;51.078;13.740;2022-12-10T09:08:52;6.60;45.20
14604;DHT22;7388;51.078;13.740;2022-12-10T09:11:29;6.60;45.20
14604;DHT22;7388;51.078;13.740;2022-12-10T09:13:56;6.60;45.10
14604;DHT22;7388;51.078;13.740;2022-12-10T09:16:28;6.60;45.00
14604;DHT22;7388;51.078;13.740;2022-12-10T09:18:54;6.60;45.00
14604;DHT22;7388;51.078;13.740;2022-12-10T09:21:20;6.60;45.10
14604;DHT22;7388;51.078;13.740;2022-12-10T09:23:46;6.50;45.20
14604;DHT22;7388;51.078;13.740;2022-12-10T09:26:14;6.60;45.20
14604;DHT22;7388;51.078;13.740;2022-12-10T09:28:41;6.60;45.20
14604;DHT22;7388;51.078;13.740;2022-12-10T09:41:33;6.60;45.30
14604;DHT22;7388;51.078;13.740;2022-12-10T09:52:29;6.60;45.40
14604;DHT22;7388;51.078;13.740;2022-12-10T09:55:02;6.60;45.40
14604;DHT22;7388;51.078;13.740;2022-12-10T09:57:30;6.60;45.40
14604;DHT22;7388;51.078;13.740;2022-12-10T10:00:00;6.70;45.40
14604;DHT22;7388;51.078;13.740;2022-12-10T10:02:29;6.70;45.30
14604;DHT22;7388;51.078;13.740;2022-12-10T10:07:35;6.70;45.20
14604;DHT22;7388;51.078;13.740;2022-12-10T10:10:06;6.70;45.10
14604;DHT22;7388;51.078;13.740;2022-12-10T10:12:34;6.60;45.10
14604;DHT22;7388;51.078;13.740;2022-12-10T10:15:13;6.60;45.20
14604;DHT22;7388;51.078;13.740;2022-12-10T10:17:40;6.60;45.10
14604;DHT22;7388;51.078;13.740;2022-12-10T10:20:11;6.60;45.10
14604;DHT22;7388;51.078;13.740;2022-12-10T10:22:38;6.60;45.10
14604;DHT22;7388;51.078;13.740;2022-12-10T10:25:05;6.60;45.00
14604;DHT22;7388;51.078;13.740;2022-12-10T10:27:32;6.50;45.10
14604;DHT22;7388;51.078;13.740;2022-12-10T10:30:01;6.50;45.10
14604;DHT22;7388;51.078;13.740;2022-12-10T10:32:47;6.50;45.10
14604;DHT22;7388;51.078;13.740;2022-12-10T10:35:27;6.50;45.10
14604;DHT22;7388;51.078;13.740;2022-12-10T10:38:19;6.50;45.10
14604;DHT22;7388;51.078;13.740;2022-12-10T10:40:55;6.50;45.20
14604;DHT22;7388;51.078;13.740;2022-12-10T10:43:28;6.40;45.30
14604;DHT22;7388;51.078;13.740;2022-12-10T10:46:06;6.40;45.30
14604;DHT22;7388;51.078;13.740;2022-12-10T10:48:36;6.40;45.30
14604;DHT22;7388;51.078;13.740;2022-12-10T10:51:07;6.40;45.40
14604;DHT22;7388;51.078;13.740;2022-12-10T10:53:53;6.40;45.50
14604;DHT22;7388;51.078;13.740;2022-12-10T10:56:23;6.40;45.40
14604;DHT22;7388;51.078;13.740;2022-12-10T10:59:07;6.30;45.40
14604;DHT22;7388;51.078;13.740;2022-12-10T11:01:52;6.30;45.40
14604;DHT22;7388;51.078;13.740;2022-12-10T11:06:56;6.30;45.60
14604;DHT22;7388;51.078;13.740;2022-12-10T11:09:28;6.30;45.60
14604;DHT22;7388;51.078;13.740;2022-12-10T11:12:06;6.30;45.50
14604;DHT22;7388;51.078;13.740;2022-12-10T11:14:54;6.40;45.50
14604;DHT22;7388;51.078;13.740;2022-12-10T11:17:21;6.40;45.60
14604;DHT22;7388;51.078;13.740;2022-12-10T11:20:00;6.40;45.60
14604;DHT22;7388;51.078;13.740;2022-12-10T11:22:29;6.40;45.40
14604;DHT22;7388;51.078;13.740;2022-12-10T11:24:56;6.30;45.40
14604;DHT22;7388;51.078;13.740;2022-12-10T11:27:48;6.30;45.40
14604;DHT22;7388;51.078;13.740;2022-12-10T11:30:26;6.30;45.50
14604;DHT22;7388;51.078;13.740;2022-12-10T11:33:12;6.30;45.50
14604;DHT22;7388;51.078;13.740;2022-12-10T11:35:59;6.30;45.60
14604;DHT22;7388;51.078;13.740;2022-12-10T11:39:06;6.30;45.60
14604;DHT22;7388;51.078;13.740;2022-12-10T11:41:52;6.30;45.60
14604;DHT22;7388;51.078;13.740;2022-12-10T11:44:29;6.30;45.60
14604;DHT22;7388;51.078;13.740;2022-12-10T11:53:00;6.30;45.70
14604;DHT22;7388;51.078;13.740;2022-12-10T11:55:44;6.30;45.70
14604;DHT22;7388;51.078;13.740;2022-12-10T11:58:30;6.40;45.60
14604;DHT22;7388;51.078;13.740;2022-12-10T12:01:17;6.30;45.70
14604;DHT22;7388;51.078;13.740;2022-12-10T12:03:54;6.30;45.60
14604;DHT22;7388;51.078;13.740;2022-12-10T12:13:16;6.30;45.70
14604;DHT22;7388;51.078;13.740;2022-12-10T12:15:32;6.30;45.80
14604;DHT22;7388;51.078;13.740;2022-12-10T12:18:12;6.30;45.80
14604;DHT22;7388;51.078;13.740;2022-12-10T12:20:45;6.30;45.60
14604;DHT22;7388;51.078;13.740;2022-12-10T12:23:16;6.30;45.70
14604;DHT22;7388;51.078;13.740;2022-12-10T12:25:51;6.30;45.60
14604;DHT22;7388;51.078;13.740;2022-12-10T12:28:36;6.30;45.70
14604;DHT22;7388;51.078;13.740;2022-12-10T12:31:31;6.20;45.60
14604;DHT22;7388;51.078;13.740;2022-12-10T12:36:38;6.30;45.80
14604;DHT22;7388;51.078;13.740;2022-12-10T12:44:22;6.30;45.90
14604;DHT22;7388;51.078;13.740;2022-12-10T12:46:55;6.30;45.80
14604;DHT22;7388;51.078;13.740;2022-12-10T12:49:31;6.30;45.90
14604;DHT22;7388;51.078;13.740;2022-12-10T12:55:06;6.30;45.90
14604;DHT22;7388;51.078;13.740;2022-12-10T12:57:47;6.30;45.80
14604;DHT22;7388;51.078;13.740;2022-12-10T13:00:19;6.30;45.80
14604;DHT22;7388;51.078;13.740;2022-12-10T13:03:17;6.30;45.80
14604;DHT22;7388;51.078;13.740;2022-12-10T13:05:44;6.30;45.70
14604;DHT22;7388;51.078;13.740;2022-12-10T13:13:34;6.20;45.50
14604;DHT22;7388;51.078;13.740;2022-12-10T13:22:00;6.20;45.90
14604;DHT22;7388;51.078;13.740;2022-12-10T13:27:32;6.20;46.00
14604;DHT22;7388;51.078;13.740;2022-12-10T13:30:27;6.20;45.80
14604;DHT22;7388;51.078;13.740;2022-12-10T13:33:05;6.20;45.80
14604;DHT22;7388;51.078;13.740;2022-12-10T13:35:31;6.20;46.10
14604;DHT22;7388;51.078;13.740;2022-12-10T13:38:04;6.10;46.10
14604;DHT22;7388;51.078;13.740;2022-12-10T13:40:42;6.10;46.10
14604;DHT22;7388;51.078;13.740;2022-12-10T13:43:38;6.20;46.10
14604;DHT22;7388;51.078;13.740;2022-12-10T13:46:26;6.20;45.80
14604;DHT22;7388;51.078;13.740;2022-12-10T13:48:59;6.10;45.90
14604;DHT22;7388;51.078;13.740;2022-12-10T13:51:36;6.10;45.90
14604;DHT22;7388;51.078;13.740;2022-12-10T14:02:46;6.20;46.10
14604;DHT22;7388;51.078;13.740;2022-12-10T14:07:50;6.10;46.20
14604;DHT22;7388;51.078;13.740;2022-12-10T14:10:18;6.10;46.20
14604;DHT22;7388;51.078;13.740;2022-12-10T14:12:45;6.20;46.20
14604;DHT22;7388;51.078;13.740;2022-12-10T14:15:21;6.20;46.00
14604;DHT22;7388;51.078;13.740;2022-12-10T14:17:51;6.20;46.00
14604;DHT22;7388;51.078;13.740;2022-12-10T14:20:22;6.10;46.00
14604;DHT22;7388;51.078;13.740;2022-12-10T14:22:50;6.10;46.20
14604;DHT22;7388;51.078;13.740;2022-12-10T14:25:21;6.10;46.20
14604;DHT22;7388;51.078;13.740;2022-12-10T14:27:52;6.10;46.20
14604;DHT22;7388;51.078;13.740;2022-12-10T14:30:23;6.10;46.10
14604;DHT22;7388;51.078;13.740;2022-12-10T14:32:51;6.10;46.10
14604;DHT22;7388;51.078;13.740;2022-12-10T14:35:21;6.10;46.00
14604;DHT22;7388;51.078;13.740;2022-12-10T14:37:49;6.10;46.10
14604;DHT22;7388;51.078;13.740;2022-12-10T14:40:39;6.10;46.20
14604;DHT22;7388;51.078;13.740;2022-12-10T14:43:08;6.00;46.00
14604;DHT22;7388;51.078;13.740;2022-12-10T14:45:47;6.00;46.20
14604;DHT22;7388;51.078;13.740;2022-12-10T14:48:16;6.00;46.00
14604;DHT22;7388;51.078;13.740;2022-12-10T14:50:43;6.00;46.00
14604;DHT22;7388;51.078;13.740;2022-12-10T14:53:15;5.90;46.10
14604;DHT22;7388;51.078;13.740;2022-12-10T14:55:42;6.00;46.20
14604;DHT22;7388;51.078;13.740;2022-12-10T14:58:15;5.90;46.30
14604;DHT22;7388;51.078;13.740;2022-12-10T15:00:43;6.00;46.20
14604;DHT22;7388;51.078;13.740;2022-12-10T15:03:11;6.00;46.30
14604;DHT22;7388;51.078;13.740;2022-12-10T15:05:39;6.00;46.30
14604;DHT22;7388;51.078;13.740;2022-12-10T15:08:11;6.00;46.30
14604;DHT22;7388;51.078;13.740;2022-12-10T15:10:41;6.00;46.20
14604;DHT22;7388;51.078;13.740;2022-12-10T15:15:44;6.00;46.20
14604;DHT22;7388;51.078;13.740;2022-12-10T15:18:18;6.00;46.20
14604;DHT22;7388;51.078;13.740;2022-12-10T15:20:47;6.00;46.20
14604;DHT22;7388;51.078;13.740;2022-12-10T15:23:29;6.00;46.10
14604;DHT22;7388;51.078;13.740;2022-12-10T15:28:37;6.00;46.10
14604;DHT22;7388;51.078;13.740;2022-12-10T15:34:08;6.00;46.20
14604;DHT22;7388;51.078;13.740;2022-12-10T15:39:17;5.90;46.30
14604;DHT22;7388;51.078;13.740;2022-12-10T15:47:19;5.90;46.20
14604;DHT22;7388;51.078;13.740;2022-12-10T15:49:45;6.00;46.20
14604;DHT22;7388;51.078;13.740;2022-12-10T15:52:16;5.90;46.30
14604;DHT22;7388;51.078;13.740;2022-12-10T15:54:44;5.90;46.30
14604;DHT22;7388;51.078;13.740;2022-12-10T15:57:27;5.90;46.30
14604;DHT22;7388;51.078;13.740;2022-12-10T15:59:55;5.90;46.20
14604;DHT22;7388;51.078;13.740;2022-12-10T16:02:58;5.90;46.20
14604;DHT22;7388;51.078;13.740;2022-12-10T16:05:29;5.90;46.20
14604;DHT22;7388;51.078;13.740;2022-12-10T16:08:00;5.90;46.30
14604;DHT22;7388;51.078;13.740;2022-12-10T16:10:27;5.90;46.40
14604;DHT22;7388;51.078;13.740;2022-12-10T16:13:00;5.90;46.30
14604;DHT22;7388;51.078;13.740;2022-12-10T16:15:29;5.90;46.30
14604;DHT22;7388;51.078;13.740;2022-12-10T16:17:56;5.90;46.40
14604;DHT22;7388;51.078;13.740;2022-12-10T16:20:25;5.90;46.40
14604;DHT22;7388;51.078;13.740;2022-12-10T16:22:52;5.90;46.30
14604;DHT22;7388;51.078;13.740;2022-12-10T16:25:19;5.90;46.30
14604;DHT22;7388;51.078;13.740;2022-12-10T16:27:45;5.90;46.30
14604;DHT22;7388;51.078;13.740;2022-12-10T16:30:23;5.90;46.30
14604;DHT22;7388;51.078;13.740;2022-12-10T16:32:49;5.90;46.30
14604;DHT22;7388;51.078;13.740;2022-12-10T16:35:15;5.90;46.30
14604;DHT22;7388;51.078;13.740;2022-12-10T16:37:43;5.90;46.20
14604;DHT22;7388;51.078;13.740;2022-12-10T16:40:11;5.90;46.20
14604;DHT22;7388;51.078;13.740;2022-12-10T16:42:37;5.90;46.10
14604;DHT22;7388;51.078;13.740;2022-12-10T16:45:17;5.90;46.10
14604;DHT22;7388;51.078;13.740;2022-12-10T16:47:43;5.90;46.10
14604;DHT22;7388;51.078;13.740;2022-12-10T16:50:10;5.90;46.20
14604;DHT22;7388;51.078;13.740;2022-12-10T16:52:37;5.80;46.10
14604;DHT22;7388;51.078;13.740;2022-12-10T16:55:03;5.80;46.00
14604;DHT22;7388;51.078;13.740;2022-12-10T16:57:29;6.80;46.60
14604;DHT22;7388;51.078;13.740;2022-12-10T16:59:55;5.80;46.00
14604;DHT22;7388;51.078;13.740;2022-12-10T17:02:20;5.80;46.00
14604;DHT22;7388;51.078;13.740;2022-12-10T17:04:47;5.80;46.10
14604;DHT22;7388;51.078;13.740;2022-12-10T17:07:13;5.80;46.30
14604;DHT22;7388;51.078;13.740;2022-12-10T17:09:40;5.80;46.30
14604;DHT22;7388;51.078;13.740;2022-12-10T17:12:08;5.80;46.20
14604;DHT22;7388;51.078;13.740;2022-12-10T17:14:38;5.80;46.20
14604;DHT22;7388;51.078;13.740;2022-12-10T17:17:05;5.80;46.10
14604;DHT22;7388;51.078;13.740;2022-12-10T17:19:41;5.80;46.20
14604;DHT22;7388;51.078;13.740;2022-12-10T17:22:08;5.80;46.20
14604;DHT22;7388;51.078;13.740;2022-12-10T17:24:34;5.80;46.20
14604;DHT22;7388;51.078;13.740;2022-12-10T17:27:07;5.80;46.10
14604;DHT22;7388;51.078;13.740;2022-12-10T17:29:38;5.90;46.20
14604;DHT22;7388;51.078;13.740;2022-12-10T17:32:06;5.80;46.10
14604;DHT22;7388;51.078;13.740;2022-12-10T17:34:32;5.80;46.10
14604;DHT22;7388;51.078;13.740;2022-12-10T17:36:57;5.80;46.10
14604;DHT22;7388;51.078;13.740;2022-12-10T17:39:23;5.80;46.20
14604;DHT22;7388;51.078;13.740;2022-12-10T17:41:54;5.80;46.20
14604;DHT22;7388;51.078;13.740;2022-12-10T17:44:20;5.80;46.20
14604;DHT22;7388;51.078;13.740;2022-12-10T17:46:47;5.80;46.20
14604;DHT22;7388;51.078;13.740;2022-12-10T17:49:14;5.80;46.20
14604;DHT22;7388;51.078;13.740;2022-12-10T17:51:41;5.80;46.20